< Typhoon 198910 1989 Season Typhoon 198912 >
Typhoon 198911 (JUDY)
General InformationTrack Information on Google MapsDetailed Wind InformationList of All Images || Disaster Info.ResourceGoogle EarthGE AnimationAtom FeedGeoJSON
Detalied Best Track (Time Zone = UTC)
Year Month Day Hour Lat. Long. Pressure (hPa) Wind (kt) Class Image Chart
1989 7 21 00 11.0 141.0 1006 0 2 Image Chart
1989 7 21 06 11.8 140.7 1004 0 2 Image Chart
1989 7 21 12 12.5 140.5 1004 0 2 Image Chart
1989 7 21 18 13.3 140.2 1004 0 2 Image Chart
1989 7 22 00 14.0 140.0 1004 0 2 Image Chart
1989 7 22 06 14.6 139.7 1002 0 2 Image Chart
1989 7 22 12 15.2 139.5 1002 0 2 Image Chart
1989 7 22 18 15.8 139.2 1000 0 2 Image Chart
1989 7 23 00 16.5 139.0 998 35 3 Image Chart
1989 7 23 06 16.9 138.8 996 40 3 Image Chart
1989 7 23 12 17.5 138.6 994 40 3 Image Chart
1989 7 23 18 18.1 138.5 990 45 3 Image Chart
1989 7 24 00 18.7 138.4 985 50 4 Image Chart
1989 7 24 06 19.4 138.3 975 60 4 Image Chart
1989 7 24 12 20.2 138.2 965 70 5 Image Chart
1989 7 24 18 21.0 138.2 960 75 5 Image Chart
1989 7 25 00 21.9 138.2 955 75 5 Image Chart
1989 7 25 06 22.9 138.2 945 80 5 Image Chart
1989 7 25 12 23.9 138.1 945 80 5 Image Chart
1989 7 25 18 24.9 137.9 940 85 5 Image Chart
1989 7 26 00 26.0 137.6 940 85 5 Image Chart
1989 7 26 06 26.9 137.0 940 85 5 Image Chart
1989 7 26 12 27.8 136.3 940 85 5 Image Chart
1989 7 26 18 28.5 135.3 950 80 5 Image Chart
1989 7 27 00 29.3 134.0 950 80 5 Image Chart
1989 7 27 06 30.1 132.6 955 75 5 Image Chart
1989 7 27 12 30.7 131.5 960 75 5 Image Chart
1989 7 27 18 31.6 130.2 965 70 5 Image Chart
1989 7 28 00 32.7 129.2 975 60 4 Image Chart
1989 7 28 06 33.4 128.1 980 55 4 Image Chart
1989 7 28 12 34.5 127.7 990 45 3 Image Chart
1989 7 28 18 36.4 126.6 994 40 3 Image Chart
1989 7 29 00 37.0 126.0 1000 0 2 Image Chart
1989 7 29 06 37.8 125.0 1006 0 2 Image Chart
Japan Meteorological Agency Best Track Data | Correction Date : 1992-10-21
< Typhoon 198910 1989 Season Typhoon 198912 >

Help